Latest Weather Observations for Montague Island

IDN60901

Issued at 7:51 pm EDT Saturday 16 December 2017 (issued every 10 minutes, with the page automatically refreshed every 10 minutes)

About weather observations | Map of Canberra area stations | Latest observations for Canberra area | Other Formats
Station Details ID: 069017 Name: MONTAGUE ISLAND LIGHTHOUSE Lat: -36.25 Lon: 150.23 Height: 52.0 m
Data from the previous 72 hours. | See also: Recent months at Montague Island
Date/Time
EDT
Temp
°C
App
Temp
°C
Dew
Point
°C
Rel
Hum
%
Delta-T
°C
Wind Press
QNH
hPa
Press
MSL
hPa
Rain since
9am
mm
Dir  Spd
km/h
Gust
km/h
Spd
kts
Gust
kts
16/07:30pm 20.5 20.5 20.2 98 0.2 S 20 24 11 13 1015.0 1014.8 6.4
16/07:00pm 20.4 21.2 19.9 97 0.3 SSE 15 24 8 13 1013.5 1013.3 6.2
16/06:30pm 20.6 21.9 20.1 97 0.3 SSW 13 15 7 8 1014.7 1014.5 4.6
16/06:00pm 21.1 22.6 20.6 97 0.3 S 13 17 7 9 1014.0 1013.8 4.6
16/05:30pm 20.5 20.6 20.0 97 0.3 S 19 24 10 13 1012.9 1012.8 4.6
16/05:00pm 20.4 19.4 19.7 96 0.4 SSE 24 28 13 15 1012.7 1012.6 4.6
16/04:30pm 20.6 21.7 19.6 94 0.6 SW 13 19 7 10 1014.7 1014.5 1.8
16/04:00pm 21.0 23.1 20.2 95 0.5 SW 9 13 5 7 1014.3 1014.1 1.8
16/03:30pm 20.6 22.2 19.9 96 0.4 SSW 11 15 6 8 1013.8 1013.6 1.8
16/03:00pm 20.3 20.0 19.6 96 0.4 SSE 20 26 11 14 1012.4 1012.3 1.8
16/02:30pm 20.1 19.8 19.6 97 0.3 SE 20 28 11 15 1012.2 1012.1 1.8
16/02:21pm 20.1 20.8 19.6 97 0.3 E 15 20 8 11 1012.7 1012.6 1.8
16/02:00pm 20.5 21.6 19.7 95 0.5 SSW 13 20 7 11 1014.8 1014.6 1.0
16/01:30pm 21.3 21.9 19.4 89 1.2 S 15 20 8 11 1012.8 1012.7 0.0
16/01:00pm 21.7 22.8 19.6 88 1.3 SSE 13 17 7 9 1012.6 1012.5 0.0
16/12:30pm 20.7 21.4 18.8 89 1.2 SE 13 17 7 9 1012.7 1012.6 0.0
16/12:00pm 21.4 22.6 19.0 86 1.5 SE 11 15 6 8 1013.3 1013.1 0.0
16/11:30am 22.0 23.4 19.5 86 1.6 SSE 11 15 6 8 1013.1 1012.9 0.0
16/11:00am 21.8 23.2 19.5 87 1.5 SSE 11 13 6 7 1013.2 1013.0 0.0
16/10:30am 21.7 23.3 20.0 90 1.1 SSE 11 15 6 8 1012.8 1012.7 0.0
16/10:00am 21.1 23.1 19.9 93 0.8 SSE 9 13 5 7 1012.9 1012.8 0.0
16/09:30am 20.0 21.8 18.8 93 0.8 SSE 7 11 4 6 1012.9 1012.8 0.0
16/09:00am 20.3 23.0 19.5 95 0.5 SW 4 9 2 5 1012.6 1012.5 0.2
16/08:30am 19.8 22.0 19.1 96 0.4 SW 6 7 3 4 1012.6 1012.5 0.2
16/08:00am 19.8 22.0 19.1 96 0.4 W 6 9 3 5 1012.4 1012.3 0.2
16/07:30am 19.5 21.6 19.0 97 0.3 WNW 6 7 3 4 1012.2 1012.1 0.2
16/07:00am 19.6 22.1 19.1 97 0.3 WNW 4 6 2 3 1011.8 1011.7 0.2
16/06:30am 19.7 21.9 19.2 97 0.3 NW 6 7 3 4 1011.3 1011.2 0.2
16/06:00am 19.7 21.8 19.0 96 0.4 WNW 6 9 3 5 1010.7 1010.6 0.2
16/05:30am 20.0 22.6 19.3 96 0.4 NW 4 7 2 4 1010.5 1010.4 0.2
16/05:00am 20.0 22.1 19.3 96 0.4 NW 7 11 4 6 1010.5 1010.4 0.2
16/04:30am 20.1 22.8 19.4 96 0.4 NNE 4 7 2 4 1010.2 1010.1 0.2
16/04:00am 20.1 23.2 19.4 96 0.4 WSW 2 4 1 2 1010.0 1009.9 0.2
16/03:30am 20.1 23.2 19.4 96 0.4 SE 2 6 1 3 1010.1 1010.0 0.2
16/03:00am 20.1 22.4 19.4 96 0.4 ESE 6 9 3 5 1010.3 1010.2 0.2
16/02:30am 20.1 21.8 19.4 96 0.4 SW 9 13 5 7 1009.9 1009.8 0.2
16/02:00am 20.1 22.2 19.4 96 0.4 SSW 7 13 4 7 1010.0 1009.9 0.2
16/01:30am 20.3 22.1 19.6 96 0.4 SSW 9 13 5 7 1010.0 1009.9 0.2
16/01:00am 20.4 22.6 19.6 95 0.5 SSW 7 11 4 6 1010.5 1010.4 0.2
16/12:30am 20.5 22.8 19.5 94 0.6 SSW 6 9 3 5 1010.8 1010.7 0.2
16/12:00am 20.5 22.7 19.3 93 0.8 SSW 6 7 3 4 1011.1 1011.0 0.2
 
Date/Time
EDT
Temp
°C
App
Temp
°C
Dew
Point
°C
Rel
Hum
%
Delta-T
°C
Wind Press
QNH
hPa
Press
MSL
hPa
Rain since
9am
mm
Dir  Spd
km/h
Gust
km/h
Spd
kts
Gust
kts
15/11:30pm 20.5 22.7 19.3 93 0.8 SW 6 6 3 3 1011.3 1011.2 0.2
15/11:00pm 20.6 22.9 19.4 93 0.8 SW 6 9 3 5 1011.3 1011.2 0.2
15/10:30pm 20.5 22.6 19.3 93 0.8 SW 7 7 4 4 1011.4 1011.3 0.2
15/10:00pm 20.6 23.7 19.4 93 0.8 WSW 2 4 1 2 1011.6 1011.5 0.2
15/09:30pm 20.5 22.7 19.3 93 0.8 WSW 6 7 3 4 1011.6 1011.5 0.2
15/09:00pm 20.6 23.7 19.4 93 0.8 WSW 2 4 1 2 1011.4 1011.3 0.2
15/08:30pm 20.9 24.6 19.9 94 0.6 CALM 0 0 0 0 1011.3 1011.2 0.2
15/08:00pm 20.9 24.2 19.9 94 0.6 ENE 2 6 1 3 1011.3 1011.2 0.2
15/07:30pm 20.9 23.3 19.7 93 0.8 ENE 6 7 3 4 1010.9 1010.8 0.2
15/07:00pm 20.8 23.1 19.5 92 0.8 NE 6 7 3 4 1010.8 1010.7 0.2
15/06:30pm 20.7 22.8 19.4 92 0.8 ENE 7 9 4 5 1010.6 1010.5 0.2
15/06:00pm 20.8 22.9 19.3 91 1.0 NE 7 11 4 6 1010.2 1010.1 0.2
15/05:30pm 20.5 22.0 18.8 90 1.1 NE 9 11 5 6 1010.5 1010.4 0.2
15/05:00pm 20.6 22.0 18.7 89 1.2 NE 9 13 5 7 1010.6 1010.5 0.2
15/04:30pm 20.6 21.1 18.4 87 1.4 ENE 13 15 7 8 1010.6 1010.5 0.2
15/04:00pm 20.4 21.1 18.0 86 1.5 NE 11 15 6 8 1010.9 1010.8 0.0
15/03:30pm 20.8 21.4 18.6 87 1.4 NE 13 17 7 9 1011.2 1011.1 0.0
15/03:00pm 20.7 21.2 18.3 86 1.5 NE 13 17 7 9 1011.6 1011.5 0.0
15/02:30pm 21.4 22.6 19.0 86 1.5 NE 11 13 6 7 1012.0 1011.9 0.0
15/02:00pm 20.5 20.9 18.1 86 1.5 NE 13 15 7 8 1012.5 1012.4 0.0
15/01:30pm 20.7 21.6 18.5 87 1.4 NNE 11 15 6 8 1012.9 1012.8 0.0
15/01:00pm 20.1 21.2 18.1 88 1.2 NNE 9 15 5 8 1013.4 1013.2 0.0
15/12:30pm 20.1 21.1 17.7 86 1.5 NNE 9 13 5 7 1013.5 1013.3 0.0
15/12:00pm 19.8 21.2 17.8 88 1.2 NE 7 13 4 7 1013.7 1013.5 0.0
15/11:30am 19.4 20.6 17.4 88 1.2 ENE 7 11 4 6 1013.8 1013.6 0.0
15/11:00am 19.2 19.9 17.0 87 1.3 E 9 13 5 7 1013.8 1013.6 0.0
15/10:30am 19.1 20.2 17.1 88 1.2 E 7 11 4 6 1014.2 1014.0 0.0
15/10:00am 18.8 19.4 16.8 88 1.2 ESE 9 11 5 6 1014.4 1014.2 0.0
15/09:30am 18.4 19.2 16.4 88 1.2 E 7 13 4 7 1014.9 1014.7 0.0
15/09:00am 18.2 17.9 16.4 89 1.1 E 13 15 7 8 1014.3 1014.1 2.2
15/08:30am 18.3 18.1 16.6 90 1.0 SE 13 17 7 9 1014.8 1014.6 2.0
15/08:00am 18.2 17.9 16.5 90 1.0 ESE 13 17 7 9 1014.5 1014.3 2.0
15/07:30am 18.2 18.3 16.5 90 1.0 SE 11 15 6 8 1014.1 1013.9 1.8
15/07:00am 18.5 17.9 16.7 89 1.1 SE 15 17 8 9 1014.1 1013.9 1.6
15/06:30am 18.5 17.5 16.5 88 1.2 SE 17 19 9 10 1013.2 1013.0 1.4
15/06:00am 18.5 17.5 16.5 88 1.2 SSE 17 20 9 11 1013.6 1013.4 1.4
15/05:30am 18.4 17.4 16.7 90 1.0 SSE 17 20 9 11 1012.7 1012.6 1.4
15/05:00am 18.2 17.3 16.9 92 0.8 SSE 17 22 9 12 1012.5 1012.4 1.4
15/04:30am 18.4 17.0 16.9 91 0.9 SE 20 24 11 13 1012.0 1011.9 1.4
15/04:00am 18.3 16.8 16.8 91 0.9 SE 20 24 11 13 1011.6 1011.5 1.2
15/03:30am 18.3 17.1 17.0 92 0.8 SE 19 20 10 11 1012.1 1012.0 1.2
15/03:00am 18.5 18.0 17.0 91 0.9 SE 15 19 8 10 1012.8 1012.7 0.6
15/02:30am 18.7 17.5 17.0 90 1.0 SE 19 22 10 12 1012.2 1012.1 0.6
15/02:00am 19.1 18.0 17.2 89 1.2 SSE 19 22 10 12 1012.6 1012.5 0.6
15/01:30am 18.8 17.6 17.1 90 1.0 SE 19 22 10 12 1012.1 1012.0 0.6
15/01:00am 19.1 17.4 17.2 89 1.2 SSE 22 28 12 15 1012.3 1012.2 0.6
15/12:30am 19.5 18.3 17.5 88 1.2 SE 20 22 11 12 1012.1 1012.0 0.6
15/12:00am 19.4 17.8 17.4 88 1.2 SE 22 26 12 14 1011.9 1011.8 0.6
 
Date/Time
EDT
Temp
°C
App
Temp
°C
Dew
Point
°C
Rel
Hum
%
Delta-T
°C
Wind Press
QNH
hPa
Press
MSL
hPa
Rain since
9am
mm
Dir  Spd
km/h
Gust
km/h
Spd
kts
Gust
kts
14/11:30pm 19.7 17.7 17.5 87 1.3 SSE 24 30 13 16 1011.6 1011.5 0.6
14/11:00pm 19.8 17.9 17.6 87 1.4 SSE 24 30 13 16 1011.7 1011.6 0.6
14/10:30pm 19.9 17.6 17.5 86 1.5 SSE 26 33 14 18 1011.3 1011.2 0.6
14/10:00pm 20.1 17.2 17.9 87 1.4 SSE 30 37 16 20 1010.4 1010.3 0.6
14/09:30pm 20.2 17.3 18.0 87 1.4 SSE 30 33 16 18 1009.7 1009.6 0.6
14/09:00pm 20.1 17.3 18.2 89 1.2 SSE 30 33 16 18 1009.0 1008.9 0.6
14/08:30pm 20.3 18.7 18.4 89 1.2 SSE 24 30 13 16 1009.1 1009.0 0.6
14/08:00pm 20.5 19.5 18.8 90 1.1 SE 22 26 12 14 1009.2 1009.1 0.6
14/07:30pm 20.5 19.5 18.8 90 1.1 SE 22 30 12 16 1007.6 1007.5 0.6
14/07:00pm 20.6 18.3 19.4 93 0.8 SSE 30 35 16 19 1006.7 1006.6 0.6
14/06:30pm 21.1 19.0 19.0 88 1.3 S 28 35 15 19 1007.1 1007.0 0.0
14/06:00pm 22.1 20.8 19.1 83 1.9 S 24 32 13 17 1005.5 1005.4 0.0
14/05:30pm 23.2 23.5 20.3 84 1.9 N 19 24 10 13 1003.8 1003.6 0.0
14/05:00pm 24.5 25.2 18.9 71 3.6 N 13 24 7 13 1003.5 1003.3 0.0
14/04:30pm 26.0 25.1 18.2 62 4.9 N 20 24 11 13 1003.2 1003.0 0.0
14/04:22pm 26.3 25.1 17.4 58 5.6 N 20 24 11 13 1003.2 1003.0 0.0
14/04:00pm 31.5 27.7 12.3 31 11.4 NNW 24 30 13 16 1002.9 1002.7 0.0
14/03:30pm 30.9 28.1 13.2 34 10.6 NNW 20 26 11 14 1003.0 1002.8 0.0
14/03:00pm 31.4 27.7 12.7 32 11.2 NNW 24 32 13 17 1002.9 1002.7 0.0
14/02:30pm 30.9 28.1 13.2 34 10.6 NNW 20 26 11 14 1003.0 1002.8 0.0
14/02:00pm 28.9 26.0 15.1 43 8.5 N 24 32 13 17 1003.1 1002.9 0.0
14/01:30pm 32.3 28.6 11.5 28 12.2 NNW 22 28 12 15 1003.1 1002.9 0.0
14/01:00pm 31.8 27.9 12.1 30 11.7 NW 24 28 13 15 1003.3 1003.1 0.0
14/12:30pm 31.2 28.1 13.5 34 10.6 NW 22 26 12 14 1003.5 1003.3 0.0
14/12:00pm 30.6 27.6 14.7 38 9.8 NW 24 30 13 16 1003.5 1003.3 0.0
14/11:30am 30.4 28.3 15.3 40 9.3 NW 20 26 11 14 1003.5 1003.3 0.0
14/11:00am 27.9 26.8 18.6 57 6.0 NNW 22 28 12 15 1003.7 1003.5 0.0
14/10:30am 24.7 24.7 19.8 74 3.2 N 19 22 10 12 1003.8 1003.6 0.0
14/10:00am 22.1 22.9 20.6 91 1.0 NNE 17 19 9 10 1004.0 1003.9 0.0
14/09:30am 21.7 21.8 20.3 92 0.9 NNE 20 24 11 13 1004.4 1004.3 0.0
14/09:00am 21.9 22.3 20.7 93 0.8 N 19 24 10 13 1004.7 1004.6 0.0
14/08:30am 21.5 21.8 20.5 94 0.6 N 19 22 10 12 1005.0 1004.9 0.0
14/08:00am 21.3 21.4 20.3 94 0.6 N 20 24 11 13 1005.0 1004.9 0.0
14/07:30am 21.2 21.4 20.5 96 0.5 N 20 24 11 13 1004.8 1004.7 0.0
14/07:00am 20.7 21.0 20.4 98 0.2 N 19 24 10 13 1004.9 1004.8 0.0
14/06:30am 20.4 21.1 20.4 100 0.0 N 17 22 9 12 1004.9 1004.8 0.0
14/06:00am 20.1 20.6 20.1 100 0.0 N 17 20 9 11 1004.8 1004.7 0.0
14/05:30am 20.1 21.0 20.1 100 0.0 N 15 19 8 10 1004.9 1004.8 0.0
14/05:00am 20.1 21.4 20.1 100 0.0 N 13 17 7 9 1005.0 1004.9 0.0
14/04:30am 20.0 21.6 20.0 100 0.0 N 11 15 6 8 1004.8 1004.7 0.0
14/04:00am 19.8 21.0 19.8 100 0.0 N 13 17 7 9 1005.1 1005.0 0.0
14/03:30am 19.4 20.7 19.4 100 0.0 N 11 15 6 8 1005.1 1005.0 0.0
14/03:00am 19.7 21.5 19.5 99 0.1 N 9 15 5 8 1005.6 1005.5 0.0
14/02:30am 19.7 21.4 19.4 98 0.2 NW 9 13 5 7 1005.7 1005.6 0.0
14/02:00am 20.3 21.9 20.0 98 0.2 NNW 11 13 6 7 1006.1 1006.0 0.0
14/01:30am 20.3 22.2 19.8 97 0.3 N 9 15 5 8 1006.5 1006.4 0.0
14/01:00am 20.5 22.1 20.0 97 0.3 N 11 17 6 9 1007.3 1007.2 0.0
14/12:30am 20.7 22.3 20.0 96 0.4 NNE 11 15 6 8 1007.8 1007.7 0.0
14/12:00am 20.7 21.9 19.9 95 0.5 NNE 13 17 7 9 1008.2 1008.1 0.0
 
Date/Time
EDT
Temp
°C
App
Temp
°C
Dew
Point
°C
Rel
Hum
%
Delta-T
°C
Wind Press
QNH
hPa
Press
MSL
hPa
Rain since
9am
mm
Dir  Spd
km/h
Gust
km/h
Spd
kts
Gust
kts
13/11:30pm 20.9 22.2 20.1 95 0.5 NNE 13 17 7 9 1008.7 1008.6 0.0
13/11:00pm 21.0 22.6 20.0 94 0.6 NNE 11 17 6 9 1008.9 1008.8 0.0
13/10:30pm 21.1 21.5 19.9 93 0.8 NNE 17 20 9 11 1009.1 1009.0 0.0
13/10:00pm 21.3 21.7 19.9 92 0.9 NNE 17 22 9 12 1009.2 1009.1 0.0
13/09:30pm 21.3 21.8 20.1 93 0.8 NNE 17 20 9 11 1009.2 1009.1 0.0
13/09:00pm 21.4 22.0 20.2 93 0.8 NNE 17 20 9 11 1009.4 1009.3 0.0
13/08:30pm 21.4 22.0 20.2 93 0.8 N 17 22 9 12 1009.3 1009.2 0.0
13/08:00pm 21.5 21.8 20.3 93 0.8 NNE 19 26 10 14 1009.0 1008.9 0.0

Latest Capital City Observations: Canberra | Sydney | Melbourne | Brisbane | Adelaide | Perth | Hobart | Darwin

Other Formats:

Comma delimited format used in spreadsheet applications
http://www.bom.gov.au/fwo/IDN60903/IDN60903.94939.axf

JavaScript Object Notation format (JSON) in row-major order
http://www.bom.gov.au/fwo/IDN60903/IDN60903.94939.json